Portada
METAR-TAF:

METAR-TAF

Aeroports :

Ponta Delgada, Açores, Portugal

latitud: 37-44N, longitud: 025-42W, altitud: 71 m

Observació

L'informe es va fer fa 19 minuts, a les 01:30 UTC
Vent 5 kt del Oest
Temperatura 17°C
Humitat 100%
Pressió 1027 hPa
Visibilitat 10 km o més
Escasses núvols a una alçada de 600 ft
Núvols disperses a una alçada de 1200 ft
Cel ennuvolat a una alçada de 3000 ft

METAR: LPPD 270130Z 27005KT 9999 FEW006 SCT012 BKN030 17/17 Q1027

Hora: 01:49 (01:49 UTC)

Pronòstic

L'informe es va fer fa 2 hores i 49 minuts, a les 23:00 UTC
Pronòstic vàlid del 27 a les 00 UTC al 27 a les 24 UTC
Vent 5 kt amb direcció variable
Visibilitat 10 km o més
Cel ennuvolat a una alçada de 3500 ft
Temporalment
l' 27 a les 00 UTC al 27 a les 15 UTC
Visibilitat: 6000 m
Núvols disperses a una alçada de 600 ft
Cel ennuvolat a una alçada de 1200 ft
pluja

TAF: LPPD 262300Z 2700/2724 VRB05KT 9999 BKN035 TEMPO 2700/2715 6000 -RA SCT006 BKN012

Observacions i pronòstics meteorològics de més de 4000 aeroports (METAR i TAF).

Les estacions disponibles són els punts grocs i vermells al mapa.

Posi el ratolí al punt desitjat per veure el nom de l'estació.

Feu clic per veure les observacions i els pronòstics meteorològics.

Per canviar el mapa: feu clic els botons verds amb una creu de color negre per apropar; al botó verd amb un guió per allunyar la imatge; o en les fletxes verdes per a mapes adjacents.


METAR-TAF: